Aérodrome :
LOGIN :

S'inscrire | Disclaimer

   EN    FR    IT 

 










Légende :    VFR   VFR Marginal   IFR   IFR Intensif   IFR Très Intensif
Visi : 
Plafond : 
>= 8 km
>= 3000ft
5 à 8 km
1000 à 3000 ft
1500m à 5 km
500 à 1000 ft
800 à 1500m
200 à 500 ft
< 800m
< 200 ft
Symboles :   Orages  Brouillard  Fortes neiges  Fortes précipitations  Vent > 20 kt
SIGMETs :   Divers  Orages  Givrage  Turbulence  Onde Orograph.  Cendres Volcan.







- Altitude de l'aérodrome : 87 ft
- Code IATA : FSC
- Voir les cartes d'approche


LFKF - Figari

DERNIER METAR :
  • 210330Z AUTO 05010KT 9999 OVC068 08/M00 Q1023 BECMG 06015G25KT

METARs EXPIRÉS :
  • 210300Z AUTO 05011KT 9999 BKN068 08/M00 Q1023 BECMG 06015G25KT
  • 210230Z AUTO 05010KT 9999 BKN078 08/00 Q1023
  • 210200Z AUTO 06008KT CAVOK 08/00 Q1024
  • 210130Z AUTO 07008KT 9999 FEW082 09/00 Q1024
  • 210100Z AUTO 05009KT 9999 BKN080 09/01 Q1024

TAF TAF LFKF
Valide du 21 à 03h jusqu'au 22 à 03h UTC


210200Z 2103/2203 06010KT 9999 BKN075
BECMG 2103/2105 06015G25KT
BECMG 2116/2118 06010KT
TEMPO 2121/2124 06015G25KT
Pas de NOTAMs connus pour ce terrain.
1 SIGMET publié pour la FIR Marseille (LFMM) :
 
Onde orographique forte
LFMM SIGMET 2 VALID 210200/210600 LFPW
LFMM MARSEILLE FIR/UIR SEV MTW FCST WI N4445 E00700 - N4400 E00700 - N4345 E00800 - N4245 E00700 - N4430 E00545 - N4445 E00700 SFC/FL240 STNR NC=



MET'MAP, la Météo Aéronautique d'un coup d'oeil ! - Copyright ORBIFLY Décembre 2007 - Disclaimer

ORBIFLY MET'MAP TEAM :

Programmation & Développement : Alexandra Zaïnal
Conception & Développement : Baudouin d'Aumeries
Co-Programmation & Développement : Marc-Olivier Méhu
Soutien technique & logistique : Manuel Goepfert

Contact : metmap@orbifly.com




SOURCES & CREDITS :

   NOAA